Darstellungsparameter: Aktuell verwendete Einstellungen:
Skalierung der Graphiken ... ?
xyx+y,   Skalierungsfaktor:      Skalierung: Modus: x, Faktor: 1
Darstellungszeitraum ... ?
Vom - - bis: - -   Zeitraum: 28.08.2014 - 28.08.2014
Min/Max/Avg-Anzeige ... ?
Zeige MMA aktuell
Zeige MMA Monat
Zeige MMA alles
Zeige --A aktuell
Zeige --A Monat
Zeige --A alles
Keine MMA-Anzeige
MMA:
Keine MMA-Graphiken
MMA-Basis: 28.08.2014 - 28.08.2014
Quicknavigation für Darstellung... ?
Tage:      1T, 2T, 3T, 5T -1T -2T -3T -5T +1T +2T +3T +5T
Wochen: 1W, 2W, 3W -1W -2W -3W +1W +2W +3W
Monate: 1M, 3M, 6M -1M -3M -6M +1M +3M +6M
Jahre:    1J, 3J, 5J, 10J -1J -3J -5J -10J +1J +3J +5J +10J
Nutze für die Darstellung ... ?
Originaldaten oder Mittelwerte auf ...
Stundenbasis Tagesbasis Wochenbasis
Monatsbasis Jahresbasis      Datenbasis: Original-Daten
Darstellen als:
Statistik (Auto) Statistik J:M      Darstellung:
Zur Graphik,    zurück zur Übersicht aller Sensoren.
 
Tabellarische Datenbersicht: ?
 
Sensor: Nr:Datum:Temp:Feuchte:Taupunkt:
Aussen-T/F 1 28-08-2014 00:00:00 12.9 C 96 % 12.28 C
2 28-08-2014 00:05:00 12.9 C 96 % 12.28 C
3 28-08-2014 00:10:00 12.9 C 96 % 12.28 C
4 28-08-2014 00:15:00 12.8 C 96 % 12.18 C
5 28-08-2014 00:20:00 12.8 C 96 % 12.18 C
6 28-08-2014 00:25:00 12.8 C 96 % 12.18 C
7 28-08-2014 00:30:00 12.8 C 96 % 12.18 C
8 28-08-2014 00:35:00 12.8 C 96 % 12.18 C
9 28-08-2014 00:40:00 12.8 C 96 % 12.18 C
10 28-08-2014 00:45:00 12.7 C 96 % 12.08 C
11 28-08-2014 00:50:00 12.6 C 96 % 11.98 C
12 28-08-2014 00:55:00 12.6 C 96 % 11.98 C
13 28-08-2014 01:00:00 12.4 C 96 % 11.78 C
14 28-08-2014 01:05:00 12.4 C 97 % 11.94 C
15 28-08-2014 01:10:00 12.4 C 97 % 11.94 C
16 28-08-2014 01:15:00 12.4 C 97 % 11.94 C
17 28-08-2014 01:20:00 12.4 C 97 % 11.94 C
18 28-08-2014 01:25:00 12.5 C 97 % 12.04 C
19 28-08-2014 01:30:00 12.5 C 97 % 12.04 C
20 28-08-2014 01:35:00 12.5 C 97 % 12.04 C
21 28-08-2014 01:40:00 12.4 C 97 % 11.94 C
22 28-08-2014 01:45:00 12.3 C 97 % 11.84 C
23 28-08-2014 01:50:00 12.3 C 97 % 11.84 C
24 28-08-2014 01:55:00 12.3 C 97 % 11.84 C
25 28-08-2014 02:00:00 12.3 C 97 % 11.84 C
Sensor: Nr:Datum:Temp:Feuchte:Taupunkt:
Aussen-T/F 26 28-08-2014 02:05:00 12.3 C 97 % 11.84 C
27 28-08-2014 02:10:00 12.3 C 97 % 11.84 C
28 28-08-2014 02:15:00 12.2 C 97 % 11.74 C
29 28-08-2014 02:20:00 12.2 C 97 % 11.74 C
30 28-08-2014 02:25:00 12.1 C 97 % 11.64 C
31 28-08-2014 02:30:00 12.1 C 97 % 11.64 C
32 28-08-2014 02:35:00 12.1 C 97 % 11.64 C
33 28-08-2014 02:40:00 12 C 97 % 11.54 C
34 28-08-2014 02:45:00 12 C 97 % 11.54 C
35 28-08-2014 02:50:00 12 C 97 % 11.54 C
36 28-08-2014 02:55:00 12 C 97 % 11.54 C
37 28-08-2014 03:00:00 12.1 C 97 % 11.64 C
38 28-08-2014 03:05:00 12 C 97 % 11.54 C
39 28-08-2014 03:10:00 12 C 97 % 11.54 C
40 28-08-2014 03:15:00 12.1 C 97 % 11.64 C
41 28-08-2014 03:20:00 12.1 C 97 % 11.64 C
42 28-08-2014 03:25:00 12.1 C 97 % 11.64 C
43 28-08-2014 03:30:00 12.1 C 97 % 11.64 C
44 28-08-2014 03:35:00 12.1 C 97 % 11.64 C
45 28-08-2014 03:40:00 12.2 C 97 % 11.74 C
46 28-08-2014 03:45:00 12.2 C 97 % 11.74 C
47 28-08-2014 03:50:00 12.1 C 97 % 11.64 C
48 28-08-2014 03:55:00 12 C 97 % 11.54 C
49 28-08-2014 04:00:00 11.9 C 97 % 11.44 C
50 28-08-2014 04:05:00 11.8 C 97 % 11.34 C
Sensor: Nr:Datum:Temp:Feuchte:Taupunkt:
Aussen-T/F 51 28-08-2014 04:10:00 11.8 C 97 % 11.34 C
52 28-08-2014 04:15:00 11.7 C 97 % 11.24 C
53 28-08-2014 04:20:00 11.7 C 97 % 11.24 C
54 28-08-2014 04:25:00 11.6 C 97 % 11.14 C
55 28-08-2014 04:30:00 11.6 C 97 % 11.14 C
56 28-08-2014 04:35:00 11.7 C 97 % 11.24 C
57 28-08-2014 04:40:00 11.7 C 97 % 11.24 C
58 28-08-2014 04:45:00 11.8 C 97 % 11.34 C
59 28-08-2014 04:50:00 11.8 C 98 % 11.49 C
60 28-08-2014 04:55:00 11.9 C 98 % 11.59 C
61 28-08-2014 05:00:00 11.9 C 98 % 11.59 C
62 28-08-2014 05:05:00 11.8 C 98 % 11.49 C
63 28-08-2014 05:10:00 11.7 C 97 % 11.24 C
64 28-08-2014 05:15:00 11.7 C 97 % 11.24 C
65 28-08-2014 05:20:00 11.7 C 97 % 11.24 C
66 28-08-2014 05:25:00 11.7 C 97 % 11.24 C
67 28-08-2014 05:30:00 11.8 C 97 % 11.34 C
68 28-08-2014 05:35:00 11.8 C 97 % 11.34 C
69 28-08-2014 05:40:00 11.7 C 97 % 11.24 C
70 28-08-2014 05:45:00 11.7 C 97 % 11.24 C
71 28-08-2014 05:50:00 11.7 C 98 % 11.39 C
72 28-08-2014 05:55:00 11.6 C 97 % 11.14 C
73 28-08-2014 06:00:00 11.6 C 98 % 11.29 C
74 28-08-2014 06:05:00 11.6 C 98 % 11.29 C
75 28-08-2014 06:10:00 11.6 C 98 % 11.29 C
Sensor: Nr:Datum:Temp:Feuchte:Taupunkt:
Aussen-T/F 76 28-08-2014 06:15:00 11.7 C 98 % 11.39 C
77 28-08-2014 06:20:00 11.7 C 98 % 11.39 C
78 28-08-2014 06:25:00 11.8 C 98 % 11.49 C
79 28-08-2014 06:30:00 11.8 C 98 % 11.49 C
80 28-08-2014 06:35:00 11.8 C 98 % 11.49 C
81 28-08-2014 06:40:00 11.7 C 98 % 11.39 C
82 28-08-2014 06:45:00 11.7 C 98 % 11.39 C
83 28-08-2014 06:50:00 11.7 C 98 % 11.39 C
84 28-08-2014 06:55:00 11.6 C 98 % 11.29 C
85 28-08-2014 07:00:00 11.7 C 98 % 11.39 C
86 28-08-2014 07:05:00 11.7 C 98 % 11.39 C
87 28-08-2014 07:10:00 11.7 C 98 % 11.39 C
88 28-08-2014 07:15:00 11.7 C 98 % 11.39 C
89 28-08-2014 07:20:00 11.7 C 98 % 11.39 C
90 28-08-2014 07:25:00 11.7 C 98 % 11.39 C
91 28-08-2014 07:30:00 11.6 C 98 % 11.29 C
92 28-08-2014 07:35:00 11.5 C 98 % 11.2 C
93 28-08-2014 07:40:00 11.5 C 97 % 11.04 C
94 28-08-2014 07:45:00 11.5 C 98 % 11.2 C
95 28-08-2014 07:50:00 11.5 C 98 % 11.2 C
96 28-08-2014 07:55:00 11.6 C 98 % 11.29 C
97 28-08-2014 08:00:00 11.7 C 98 % 11.39 C
98 28-08-2014 08:05:00 11.8 C 98 % 11.49 C
99 28-08-2014 08:10:00 11.8 C 98 % 11.49 C
100 28-08-2014 08:15:00 11.8 C 98 % 11.49 C
Sensor: Nr:Datum:Temp:Feuchte:Taupunkt:
Aussen-T/F 101 28-08-2014 08:20:00 11.8 C 98 % 11.49 C
102 28-08-2014 08:25:00 11.9 C 98 % 11.59 C
103 28-08-2014 08:30:00 11.9 C 98 % 11.59 C
104 28-08-2014 08:35:00 11.9 C 98 % 11.59 C
105 28-08-2014 08:40:00 11.9 C 98 % 11.59 C
106 28-08-2014 08:45:00 11.9 C 98 % 11.59 C
107 28-08-2014 08:50:00 12 C 98 % 11.69 C
108 28-08-2014 08:55:00 12.1 C 98 % 11.79 C
109 28-08-2014 09:00:00 12.2 C 98 % 11.89 C
110 28-08-2014 09:05:00 12.2 C 98 % 11.89 C
111 28-08-2014 09:10:00 12.3 C 98 % 11.99 C
112 28-08-2014 09:15:00 12.4 C 98 % 12.09 C
113 28-08-2014 09:20:00 12.6 C 98 % 12.29 C
114 28-08-2014 09:25:00 12.7 C 98 % 12.39 C
115 28-08-2014 09:30:00 12.8 C 98 % 12.49 C
116 28-08-2014 09:35:00 12.9 C 98 % 12.59 C
117 28-08-2014 09:40:00 13.1 C 98 % 12.79 C
118 28-08-2014 09:45:00 13.3 C 98 % 12.99 C
119 28-08-2014 09:50:00 13.4 C 98 % 13.09 C
120 28-08-2014 09:55:00 13.6 C 98 % 13.29 C
121 28-08-2014 10:00:00 13.8 C 98 % 13.49 C
122 28-08-2014 10:05:00 14 C 98 % 13.69 C
123 28-08-2014 10:10:00 14.2 C 98 % 13.89 C
124 28-08-2014 10:15:00 14.5 C 98 % 14.19 C
125 28-08-2014 10:20:00 14.6 C 98 % 14.29 C
Sensor: Nr:Datum:Temp:Feuchte:Taupunkt:
Aussen-T/F 126 28-08-2014 10:25:00 14.7 C 98 % 14.39 C
127 28-08-2014 10:30:00 14.8 C 98 % 14.49 C
128 28-08-2014 10:35:00 14.9 C 98 % 14.59 C
129 28-08-2014 10:40:00 15 C 98 % 14.69 C
130 28-08-2014 10:45:00 15.1 C 98 % 14.79 C
131 28-08-2014 10:50:00 15.3 C 98 % 14.99 C
132 28-08-2014 10:55:00 15.5 C 98 % 15.19 C
133 28-08-2014 11:00:00 15.6 C 98 % 15.29 C
134 28-08-2014 11:05:00 15.7 C 98 % 15.38 C
135 28-08-2014 11:10:00 16 C 98 % 15.68 C
136 28-08-2014 11:15:00 16.1 C 98 % 15.78 C
137 28-08-2014 11:20:00 16.3 C 98 % 15.98 C
138 28-08-2014 11:25:00 16.4 C 98 % 16.08 C
139 28-08-2014 11:30:00 16.6 C 97 % 16.12 C
140 28-08-2014 11:35:00 16.7 C 96 % 16.06 C
141 28-08-2014 11:40:00 17 C 96 % 16.36 C
142 28-08-2014 11:45:00 17.3 C 96 % 16.66 C
143 28-08-2014 11:50:00 18.2 C 90 % 16.53 C
144 28-08-2014 11:55:00 19.1 C 89 % 17.24 C
145 28-08-2014 12:00:00 19.4 C 87 % 17.18 C
146 28-08-2014 12:05:00 19.4 C 88 % 17.36 C
147 28-08-2014 12:10:00 19.6 C 85 % 17.01 C
148 28-08-2014 12:15:00 19.6 C 89 % 17.74 C
149 28-08-2014 12:20:00 19.4 C 88 % 17.36 C
150 28-08-2014 12:25:00 19.8 C 84 % 17.02 C
Sensor: Nr:Datum:Temp:Feuchte:Taupunkt:
Aussen-T/F 151 28-08-2014 12:30:00 20.2 C 82 % 17.03 C
152 28-08-2014 12:35:00 20.4 C 82 % 17.22 C
153 28-08-2014 12:40:00 20.2 C 84 % 17.41 C
154 28-08-2014 12:45:00 19.7 C 86 % 17.29 C
155 28-08-2014 12:50:00 19.2 C 88 % 17.16 C
156 28-08-2014 12:55:00 18.8 C 89 % 16.95 C
157 28-08-2014 13:00:00 18.4 C 90 % 16.73 C
158 28-08-2014 13:05:00 18.1 C 91 % 16.61 C
159 28-08-2014 13:10:00 17.9 C 92 % 16.58 C
160 28-08-2014 13:15:00 17.9 C 93 % 16.75 C
161 28-08-2014 13:20:00 18.3 C 94 % 17.32 C
162 28-08-2014 13:25:00 19.1 C 88 % 17.07 C
163 28-08-2014 13:30:00 20.1 C 83 % 17.12 C
164 28-08-2014 13:35:00 21 C 83 % 18 C
165 28-08-2014 13:40:00 21.4 C 80 % 17.81 C
166 28-08-2014 13:45:00 21.3 C 82 % 18.1 C
167 28-08-2014 13:50:00 20.8 C 81 % 17.42 C
168 28-08-2014 13:55:00 20.6 C 86 % 18.18 C
169 28-08-2014 14:00:00 20.5 C 87 % 18.26 C
170 28-08-2014 14:05:00 20.8 C 85 % 18.18 C
171 28-08-2014 14:10:00 20.8 C 85 % 18.18 C
172 28-08-2014 14:15:00 20.6 C 87 % 18.36 C
173 28-08-2014 14:20:00 21.1 C 83 % 18.1 C
174 28-08-2014 14:25:00 22.2 C 78 % 18.18 C
175 28-08-2014 14:30:00 22.7 C 74 % 17.83 C
Sensor: Nr:Datum:Temp:Feuchte:Taupunkt:
Aussen-T/F 176 28-08-2014 14:35:00 22.8 C 72 % 17.49 C
177 28-08-2014 14:40:00 22.6 C 78 % 18.57 C
178 28-08-2014 14:45:00 21.5 C 80 % 17.9 C
179 28-08-2014 14:50:00 20.8 C 84 % 18 C
180 28-08-2014 14:55:00 20.4 C 86 % 17.98 C
181 28-08-2014 15:00:00 20.2 C 84 % 17.41 C
182 28-08-2014 15:05:00 20.1 C 86 % 17.68 C
183 28-08-2014 15:10:00 20.2 C 86 % 17.78 C
184 28-08-2014 15:15:00 20.6 C 82 % 17.42 C
185 28-08-2014 15:20:00 20.8 C 83 % 17.81 C
186 28-08-2014 15:25:00 20.9 C 81 % 17.52 C
187 28-08-2014 15:30:00 21.1 C 77 % 16.91 C
188 28-08-2014 15:35:00 21.5 C 73 % 16.46 C
189 28-08-2014 15:40:00 21.8 C 74 % 16.96 C
190 28-08-2014 15:45:00 22.1 C 74 % 17.25 C
191 28-08-2014 15:50:00 22.2 C 75 % 17.56 C
192 28-08-2014 15:55:00 22.3 C 72 % 17.01 C
193 28-08-2014 16:00:00 22.3 C 77 % 18.07 C
194 28-08-2014 16:05:00 22.1 C 79 % 18.29 C
195 28-08-2014 16:10:00 21.4 C 81 % 18 C
196 28-08-2014 16:15:00 21.1 C 82 % 17.91 C
197 28-08-2014 16:20:00 20.7 C 85 % 18.09 C
198 28-08-2014 16:25:00 20.4 C 84 % 17.61 C
199 28-08-2014 16:30:00 20.2 C 86 % 17.78 C
200 28-08-2014 16:35:00 19.9 C 88 % 17.85 C
Sensor: Nr:Datum:Temp:Feuchte:Taupunkt:
Aussen-T/F 201 28-08-2014 16:40:00 19.8 C 88 % 17.75 C
202 28-08-2014 16:45:00 19.7 C 89 % 17.84 C
203 28-08-2014 16:50:00 19.7 C 89 % 17.84 C
204 28-08-2014 16:55:00 19.8 C 88 % 17.75 C
205 28-08-2014 17:00:00 19.9 C 88 % 17.85 C
206 28-08-2014 17:05:00 20 C 86 % 17.59 C
207 28-08-2014 17:10:00 20.2 C 85 % 17.6 C
208 28-08-2014 17:15:00 20.2 C 81 % 16.84 C
209 28-08-2014 17:20:00 20.3 C 85 % 17.7 C
210 28-08-2014 17:25:00 20.1 C 84 % 17.31 C
211 28-08-2014 17:30:00 19.9 C 85 % 17.3 C
212 28-08-2014 17:35:00 19.8 C 83 % 16.83 C
213 28-08-2014 17:40:00 19.9 C 83 % 16.93 C
214 28-08-2014 17:45:00 19.9 C 86 % 17.49 C
215 28-08-2014 17:50:00 19.8 C 86 % 17.39 C
216 28-08-2014 17:55:00 19.7 C 88 % 17.66 C
217 28-08-2014 18:00:00 19.7 C 86 % 17.29 C
218 28-08-2014 18:05:00 19.7 C 88 % 17.66 C
219 28-08-2014 18:10:00 19.8 C 89 % 17.93 C
220 28-08-2014 18:15:00 19.9 C 87 % 17.67 C
221 28-08-2014 18:20:00 19.8 C 88 % 17.75 C
222 28-08-2014 18:25:00 19.6 C 89 % 17.74 C
223 28-08-2014 18:30:00 19.4 C 90 % 17.72 C
224 28-08-2014 18:35:00 19.3 C 90 % 17.62 C
225 28-08-2014 18:40:00 19.3 C 90 % 17.62 C
Sensor: Nr:Datum:Temp:Feuchte:Taupunkt:
Aussen-T/F 226 28-08-2014 18:45:00 19.3 C 90 % 17.62 C
227 28-08-2014 18:50:00 19.2 C 91 % 17.69 C
228 28-08-2014 18:55:00 19.1 C 92 % 17.77 C
229 28-08-2014 19:00:00 19.1 C 92 % 17.77 C
230 28-08-2014 19:05:00 19 C 91 % 17.5 C
231 28-08-2014 19:10:00 18.9 C 91 % 17.4 C
232 28-08-2014 19:15:00 18.8 C 92 % 17.47 C
233 28-08-2014 19:20:00 18.7 C 92 % 17.37 C
234 28-08-2014 19:25:00 18.6 C 92 % 17.27 C
235 28-08-2014 19:30:00 18.5 C 93 % 17.35 C
236 28-08-2014 19:35:00 18.4 C 93 % 17.25 C
237 28-08-2014 19:40:00 18.3 C 93 % 17.15 C
238 28-08-2014 19:45:00 18.3 C 93 % 17.15 C
239 28-08-2014 19:50:00 18.3 C 94 % 17.32 C
240 28-08-2014 19:55:00 18.4 C 94 % 17.42 C
241 28-08-2014 20:00:00 18.3 C 93 % 17.15 C
242 28-08-2014 20:05:00 18.3 C 93 % 17.15 C
243 28-08-2014 20:10:00 18.2 C 93 % 17.05 C
244 28-08-2014 20:15:00 18 C 93 % 16.85 C
245 28-08-2014 20:20:00 17.8 C 93 % 16.65 C
246 28-08-2014 20:25:00 17.6 C 93 % 16.45 C
247 28-08-2014 20:30:00 17.4 C 94 % 16.42 C
248 28-08-2014 20:35:00 17.3 C 94 % 16.33 C
249 28-08-2014 20:40:00 17.2 C 94 % 16.23 C
250 28-08-2014 20:45:00 17.2 C 94 % 16.23 C
Sensor: Nr:Datum:Temp:Feuchte:Taupunkt:
Aussen-T/F 251 28-08-2014 20:50:00 17.1 C 94 % 16.13 C
252 28-08-2014 20:55:00 17 C 95 % 16.19 C
253 28-08-2014 21:00:00 16.9 C 95 % 16.09 C
254 28-08-2014 21:05:00 16.8 C 95 % 15.99 C
255 28-08-2014 21:10:00 16.8 C 95 % 15.99 C
256 28-08-2014 21:15:00 16.7 C 95 % 15.9 C
257 28-08-2014 21:20:00 16.8 C 95 % 15.99 C
258 28-08-2014 21:25:00 16.8 C 95 % 15.99 C
259 28-08-2014 21:30:00 16.8 C 96 % 16.16 C
260 28-08-2014 21:35:00 16.8 C 96 % 16.16 C
261 28-08-2014 21:40:00 16.8 C 96 % 16.16 C
262 28-08-2014 21:45:00 16.8 C 96 % 16.16 C
263 28-08-2014 21:50:00 16.8 C 96 % 16.16 C
264 28-08-2014 21:55:00 16.8 C 96 % 16.16 C
265 28-08-2014 22:00:00 16.8 C 96 % 16.16 C
266 28-08-2014 22:05:00 16.8 C 96 % 16.16 C
267 28-08-2014 22:10:00 16.8 C 96 % 16.16 C
268 28-08-2014 22:15:00 16.8 C 96 % 16.16 C
269 28-08-2014 22:20:00 16.8 C 96 % 16.16 C
270 28-08-2014 22:25:00 16.8 C 96 % 16.16 C
271 28-08-2014 22:30:00 16.8 C 96 % 16.16 C
272 28-08-2014 22:35:00 16.7 C 96 % 16.06 C
273 28-08-2014 22:40:00 16.7 C 96 % 16.06 C
274 28-08-2014 22:45:00 16.7 C 96 % 16.06 C
275 28-08-2014 22:50:00 16.6 C 96 % 15.96 C
Sensor: Nr:Datum:Temp:Feuchte:Taupunkt:
Aussen-T/F 276 28-08-2014 22:55:00 16.6 C 96 % 15.96 C
277 28-08-2014 23:00:00 16.4 C 96 % 15.76 C
278 28-08-2014 23:05:00 16.4 C 96 % 15.76 C
279 28-08-2014 23:10:00 16.3 C 96 % 15.66 C
280 28-08-2014 23:15:00 16.3 C 96 % 15.66 C
281 28-08-2014 23:20:00 16.2 C 96 % 15.56 C
282 28-08-2014 23:25:00 16.2 C 96 % 15.56 C
283 28-08-2014 23:30:00 16.2 C 96 % 15.56 C
284 28-08-2014 23:35:00 16.2 C 96 % 15.56 C
285 28-08-2014 23:40:00 16.2 C 96 % 15.56 C
286 28-08-2014 23:45:00 16.2 C 97 % 15.72 C
287 28-08-2014 23:50:00 16.2 C 97 % 15.72 C
288 28-08-2014 23:55:00 16.2 C 97 % 15.72 C

Legende:
   Min
   Max


Maximal/Minimal-Werte vom 28.08.2014 - 28.08.2014

Sensor Min Max Avg
Temp
(Aussen-T/F)
11.5 °C
28-08-2014  07:35:00
22.8 °C
28-08-2014  14:35:00
15.84 °C
Feuchte
(Aussen-T/F)
72 %
28-08-2014  14:35:00
98 %
28-08-2014  04:50:00
93.06 %
Taupunkt
(Aussen-T/F)
11.04 C
28-08-2014  07:40:00
18.57 C
28-08-2014  14:40:00
14.61 C

Die Daten stammen von einer Davis Vantage Pro 2 Wetter-Station und werden unter Linux mit der Software wview2wettercgi und aufbereitet. Alle Angaben erfolgen ohne Gewähr für ihre Vollständigkeit oder Richtigkeit.
Kontakt: Rainer Krienke krienke@uni-koblenz.de . Meine Webseiten an der Uni Koblenz oder privat.
Version: $Revision: 0.78 $